Time;durP1;ratioP1;P1;durP2;ratioP2;P2;SDS_P1;SDS_P2;PMS_P1;PMS_P2;Temp;Humidity;BMP_temperature;BMP_pressure;BME280_temperature;BME280_humidity;BME280_pressure;Samples;Min_cycle;Max_cycle;Signal;HPM_P1;HPM_P2
2023/09/16 00:01:15;;;;;;;1.80;1.10;;;15.20;90.70;;;;;;4997337;28;20044;-84
2023/09/16 00:03:46;;;;;;;2.63;0.80;;;15.20;90.70;;;;;;5015171;28;20056;-84
2023/09/16 00:06:16;;;;;;;2.45;0.65;;;15.20;90.80;;;;;;5034948;28;20051;-84
2023/09/16 00:08:46;;;;;;;2.80;0.90;;;15.10;90.80;;;;;;5031909;28;20381;-84
2023/09/16 00:11:14;;;;;;;2.47;0.85;;;15.20;90.90;;;;;;5020287;28;20103;-83
2023/09/16 00:13:43;;;;;;;2.10;0.70;;;15.20;90.80;;;;;;5034859;28;20118;-83
2023/09/16 00:16:12;;;;;;;1.48;0.75;;;15.10;90.80;;;;;;5022897;28;20073;-83
2023/09/16 00:18:39;;;;;;;3.88;1.17;;;15.10;90.80;;;;;;5045699;28;20411;-83
2023/09/16 00:21:06;;;;;;;2.22;0.95;;;15.10;90.90;;;;;;5025506;28;20037;-83
2023/09/16 00:23:39;;;;;;;3.47;0.93;;;15.10;90.90;;;;;;5036343;28;20106;-83
2023/09/16 00:26:06;;;;;;;1.73;0.80;;;15.10;90.90;;;;;;5024840;28;20049;-83
2023/09/16 00:28:39;;;;;;;2.40;1.10;;;15.10;90.90;;;;;;5042206;28;20053;-83
2023/09/16 00:31:07;;;;;;;3.83;1.17;;;15.10;90.90;;;;;;5035928;28;20041;-83
2023/09/16 00:33:34;;;;;;;1.85;0.88;;;15.10;91.00;;;;;;5019602;28;20073;-83
2023/09/16 00:36:02;;;;;;;2.15;0.93;;;15.00;91.00;;;;;;5010701;28;20495;-83
2023/09/16 00:38:29;;;;;;;2.00;1.00;;;15.10;91.00;;;;;;5034472;28;20135;-83
2023/09/16 00:40:56;;;;;;;2.05;0.85;;;15.00;91.00;;;;;;5028624;28;20044;-83
2023/09/16 00:43:24;;;;;;;3.03;0.80;;;15.10;91.10;;;;;;5006558;28;20052;-84
2023/09/16 00:45:53;;;;;;;3.10;1.02;;;15.10;91.10;;;;;;5021149;28;20111;-82
2023/09/16 00:48:23;;;;;;;2.42;1.10;;;15.10;91.10;;;;;;5027728;28;20049;-83
2023/09/16 00:50:51;;;;;;;3.13;1.20;;;15.10;91.10;;;;;;5027986;28;20111;-83
2023/09/16 00:53:19;;;;;;;2.88;1.15;;;15.10;91.00;;;;;;5037103;28;20045;-84
2023/09/16 00:55:48;;;;;;;1.95;0.95;;;15.20;91.00;;;;;;5020868;28;20045;-83
2023/09/16 00:58:19;;;;;;;2.65;0.98;;;15.20;91.00;;;;;;5030760;28;20048;-83
2023/09/16 01:00:47;;;;;;;2.20;1.00;;;15.20;91.00;;;;;;5016751;28;20482;-84
2023/09/16 01:03:17;;;;;;;4.53;1.30;;;15.20;91.00;;;;;;5034131;28;20402;-84
2023/09/16 01:05:50;;;;;;;3.17;1.00;;;15.30;91.00;;;;;;5018747;28;20041;-84
2023/09/16 01:08:19;;;;;;;2.65;1.20;;;15.30;91.00;;;;;;5021997;28;20046;-84
2023/09/16 01:10:50;;;;;;;3.50;1.35;;;15.30;91.00;;;;;;5037637;28;20060;-83
2023/09/16 01:13:21;;;;;;;2.35;1.00;;;15.30;91.00;;;;;;5005085;28;20041;-83
2023/09/16 01:16:08;;;;;;;3.42;1.17;;;15.30;91.00;;;;;;5029252;28;20076;-84
2023/09/16 01:18:40;;;;;;;2.22;0.90;;;15.30;91.00;;;;;;5039384;28;20045;-83
2023/09/16 01:21:12;;;;;;;3.58;1.40;;;15.30;91.10;;;;;;5034927;28;20050;-83
2023/09/16 01:23:40;;;;;;;3.92;0.98;;;15.30;91.10;;;;;;5034832;28;20931;-84
2023/09/16 01:26:08;;;;;;;2.10;0.90;;;15.30;91.10;;;;;;5021756;28;20073;-83
2023/09/16 01:28:35;;;;;;;3.05;1.25;;;15.30;91.10;;;;;;5035597;28;20044;-84
2023/09/16 01:31:05;;;;;;;2.00;1.00;;;15.30;91.20;;;;;;5032924;28;20055;-83
2023/09/16 01:33:40;;;;;;;1.50;0.88;;;15.30;91.20;;;;;;5052729;28;20067;-84
2023/09/16 01:36:12;;;;;;;2.35;1.20;;;15.30;91.30;;;;;;5049436;28;20049;-83
2023/09/16 01:38:43;;;;;;;2.42;1.17;;;15.20;91.30;;;;;;5040413;28;20045;-83
2023/09/16 01:41:12;;;;;;;2.40;1.10;;;15.20;91.40;;;;;;5040541;28;20049;-83
2023/09/16 01:43:39;;;;;;;2.42;1.45;;;15.20;91.40;;;;;;5043984;28;20050;-83
2023/09/16 01:46:12;;;;;;;3.50;1.63;;;15.20;91.40;;;;;;5041417;28;20127;-84
2023/09/16 01:48:39;;;;;;;2.83;1.25;;;15.10;91.40;;;;;;5017984;28;20053;-84
2023/09/16 01:51:14;;;;;;;2.63;1.20;;;15.10;91.40;;;;;;5025747;28;20049;-84
2023/09/16 01:53:42;;;;;;;2.42;0.90;;;15.10;91.50;;;;;;5042492;28;20041;-84
2023/09/16 01:56:09;;;;;;;3.45;1.73;;;15.10;91.50;;;;;;5047651;28;20045;-83
2023/09/16 01:58:38;;;;;;;2.97;1.40;;;15.00;91.60;;;;;;5032385;28;20072;-84
2023/09/16 02:01:11;;;;;;;2.78;1.50;;;15.00;91.60;;;;;;5013129;28;20044;-84
2023/09/16 02:03:41;;;;;;;2.67;1.45;;;15.00;91.60;;;;;;5037375;28;20042;-83
2023/09/16 02:06:08;;;;;;;3.70;1.80;;;15.00;91.60;;;;;;5029865;28;20052;-84
2023/09/16 02:08:43;;;;;;;3.88;1.50;;;15.00;91.70;;;;;;5017702;28;20056;-83
2023/09/16 02:11:12;;;;;;;2.63;1.45;;;15.00;91.70;;;;;;5017311;28;20068;-83
2023/09/16 02:13:40;;;;;;;2.97;1.48;;;15.00;91.70;;;;;;5022248;28;20049;-84
2023/09/16 02:16:10;;;;;;;3.60;1.60;;;15.00;91.70;;;;;;5009736;28;20080;-84
2023/09/16 02:18:38;;;;;;;3.03;1.60;;;15.00;91.70;;;;;;5047561;28;20050;-84
2023/09/16 02:21:07;;;;;;;3.63;1.60;;;14.90;91.70;;;;;;5033502;28;20041;-83
2023/09/16 02:23:34;;;;;;;2.28;1.30;;;14.90;91.80;;;;;;5034460;28;20131;-84
2023/09/16 02:26:05;;;;;;;3.97;2.05;;;14.90;91.80;;;;;;5027207;28;20044;-83
2023/09/16 02:28:32;;;;;;;4.80;2.50;;;14.90;91.80;;;;;;5046602;28;20503;-84
2023/09/16 02:31:00;;;;;;;7.18;2.65;;;14.90;91.90;;;;;;5008718;28;20044;-84
2023/09/16 02:33:27;;;;;;;4.30;2.28;;;14.90;91.90;;;;;;5018661;28;20071;-83
2023/09/16 02:36:14;;;;;;;4.32;2.38;;;14.80;91.90;;;;;;5000941;28;20084;-85
2023/09/16 02:38:42;;;;;;;3.05;1.55;;;14.80;91.90;;;;;;5002600;28;20065;-84
2023/09/16 02:41:09;;;;;;;4.20;1.65;;;14.80;92.00;;;;;;5020311;28;20041;-84
2023/09/16 02:43:38;;;;;;;3.13;1.80;;;14.80;92.10;;;;;;5039500;28;20119;-84
2023/09/16 02:46:08;;;;;;;3.70;2.17;;;14.70;92.10;;;;;;5025397;28;20045;-84
2023/09/16 02:48:36;;;;;;;3.03;1.65;;;14.70;92.10;;;;;;5047908;28;20048;-85
2023/09/16 02:51:09;;;;;;;4.30;2.08;;;14.70;92.10;;;;;;5022458;28;20037;-85
2023/09/16 02:53:39;;;;;;;4.53;2.20;;;14.70;92.20;;;;;;5033400;28;20103;-84
2023/09/16 02:56:09;;;;;;;3.67;2.10;;;14.70;92.20;;;;;;5027615;28;20523;-85
2023/09/16 02:58:39;;;;;;;3.72;2.13;;;14.70;92.20;;;;;;5034112;28;20075;-84
2023/09/16 03:01:10;;;;;;;3.83;1.88;;;14.60;92.20;;;;;;5030764;28;20045;-84
2023/09/16 03:03:41;;;;;;;3.60;2.10;;;14.70;92.20;;;;;;5039817;28;20045;-84
2023/09/16 03:06:11;;;;;;;4.65;1.95;;;14.70;92.20;;;;;;5023375;28;20048;-84
2023/09/16 03:08:42;;;;;;;3.20;2.05;;;14.60;92.20;;;;;;5035896;28;20477;-84
2023/09/16 03:11:10;;;;;;;4.43;2.30;;;14.70;92.30;;;;;;5036386;28;20499;-84
2023/09/16 03:13:49;;;;;;;5.00;2.50;;;14.70;92.30;;;;;;5017062;28;20041;-84
2023/09/16 03:16:22;;;;;;;3.83;1.92;;;14.60;92.30;;;;;;4999926;28;20419;-84
2023/09/16 03:18:56;;;;;;;4.22;2.63;;;14.60;92.30;;;;;;5039095;28;20045;-84
2023/09/16 03:21:26;;;;;;;3.17;1.80;;;14.60;92.30;;;;;;5022950;28;20133;-84
2023/09/16 03:24:01;;;;;;;4.32;2.35;;;14.60;92.30;;;;;;5038835;28;20051;-84
2023/09/16 03:26:29;;;;;;;4.28;2.38;;;14.60;92.40;;;;;;5022568;28;20041;-84
2023/09/16 03:28:57;;;;;;;4.47;2.20;;;14.60;92.40;;;;;;5000613;28;20470;-84
2023/09/16 03:31:30;;;;;;;4.10;2.10;;;14.50;92.40;;;;;;5033564;28;20136;-84
2023/09/16 03:34:04;;;;;;;3.58;2.20;;;14.60;92.40;;;;;;5016846;28;20096;-84
2023/09/16 03:36:33;;;;;;;4.22;2.40;;;14.50;92.40;;;;;;5035259;28;20041;-84
2023/09/16 03:39:00;;;;;;;5.75;2.70;;;14.50;92.50;;;;;;5029448;28;20045;-84
2023/09/16 03:41:27;;;;;;;4.68;2.53;;;14.50;92.50;;;;;;5029098;28;20493;-84
2023/09/16 03:43:59;;;;;;;4.75;2.47;;;14.50;92.50;;;;;;5029119;28;20041;-84
2023/09/16 03:46:28;;;;;;;5.22;2.47;;;14.40;92.50;;;;;;5037858;28;20056;-84
2023/09/16 03:48:58;;;;;;;5.00;2.67;;;14.40;92.60;;;;;;5023760;28;20049;-84
2023/09/16 03:51:27;;;;;;;3.88;2.28;;;14.50;92.60;;;;;;5030363;28;20045;-84
2023/09/16 03:53:55;;;;;;;5.43;2.50;;;14.50;92.60;;;;;;5022329;28;20056;-84
2023/09/16 03:56:22;;;;;;;3.08;1.70;;;14.40;92.60;;;;;;5031438;28;20048;-84
2023/09/16 03:58:50;;;;;;;4.60;2.33;;;14.40;92.60;;;;;;5024112;28;20049;-84
2023/09/16 04:01:21;;;;;;;3.63;2.22;;;14.40;92.60;;;;;;5034570;28;20041;-84
2023/09/16 04:03:49;;;;;;;4.50;2.63;;;14.40;92.70;;;;;;5030202;28;20048;-84
2023/09/16 04:06:19;;;;;;;4.55;2.60;;;14.40;92.70;;;;;;5036741;28;20131;-84
2023/09/16 04:08:46;;;;;;;4.22;2.25;;;14.40;92.70;;;;;;5035313;28;20521;-84
2023/09/16 04:11:15;;;;;;;4.20;2.20;;;14.40;92.60;;;;;;5043438;28;20124;-84
2023/09/16 04:13:43;;;;;;;4.35;2.22;;;14.40;92.70;;;;;;5031694;28;20518;-84
2023/09/16 04:16:11;;;;;;;5.35;2.63;;;14.40;92.70;;;;;;5035031;28;20092;-84
2023/09/16 04:18:39;;;;;;;3.97;2.10;;;14.40;92.70;;;;;;5030361;28;20132;-84
2023/09/16 04:21:06;;;;;;;5.90;2.50;;;14.40;92.70;;;;;;5024303;28;20041;-84
2023/09/16 04:23:37;;;;;;;4.38;2.40;;;14.30;92.70;;;;;;5042710;28;20155;-84
2023/09/16 04:26:08;;;;;;;5.22;2.65;;;14.40;92.80;;;;;;5019401;28;20443;-85
2023/09/16 04:28:36;;;;;;;4.45;2.60;;;14.30;92.80;;;;;;5052447;28;20051;-84
2023/09/16 04:31:08;;;;;;;3.47;2.08;;;14.30;92.80;;;;;;5008831;28;20103;-84
2023/09/16 04:33:42;;;;;;;3.38;2.13;;;14.30;92.80;;;;;;5021072;28;20041;-84
2023/09/16 04:36:10;;;;;;;4.05;2.40;;;14.30;92.90;;;;;;5050836;28;20052;-84
2023/09/16 04:38:41;;;;;;;5.32;2.78;;;14.20;92.90;;;;;;5019791;28;20042;-84
2023/09/16 04:41:08;;;;;;;4.07;2.80;;;14.20;92.90;;;;;;5028793;28;20088;-85
2023/09/16 04:43:36;;;;;;;4.20;2.30;;;14.20;92.90;;;;;;5008469;28;20053;-85
2023/09/16 04:46:05;;;;;;;4.15;2.20;;;14.20;92.90;;;;;;5034870;28;20053;-84
2023/09/16 04:48:40;;;;;;;5.07;2.17;;;14.20;93.00;;;;;;5028613;28;20147;-85
2023/09/16 04:51:07;;;;;;;5.13;2.90;;;14.10;93.00;;;;;;5008550;28;20052;-84
2023/09/16 04:53:35;;;;;;;5.50;3.08;;;14.10;93.00;;;;;;5022815;28;20068;-84
2023/09/16 04:56:06;;;;;;;5.05;2.67;;;14.10;93.00;;;;;;5059304;28;20044;-84
2023/09/16 04:58:36;;;;;;;4.47;2.55;;;14.10;93.00;;;;;;5044519;28;20048;-84
2023/09/16 05:01:14;;;;;;;3.75;2.15;;;14.20;93.00;;;;;;5044917;28;20053;-84
2023/09/16 05:03:42;;;;;;;5.35;2.90;;;14.20;93.10;;;;;;5022113;28;20072;-84
2023/09/16 05:06:11;;;;;;;4.15;2.45;;;14.10;93.00;;;;;;5031883;28;20048;-84
2023/09/16 05:08:38;;;;;;;4.25;2.55;;;14.10;93.00;;;;;;5034308;28;20110;-85
2023/09/16 05:11:06;;;;;;;5.40;3.47;;;14.20;93.00;;;;;;5030749;28;20049;-84
2023/09/16 05:13:45;;;;;;;5.13;3.05;;;14.20;93.00;;;;;;5044413;28;20052;-84
2023/09/16 05:16:13;;;;;;;6.25;2.90;;;14.20;93.00;;;;;;4998642;28;20419;-85
2023/09/16 05:18:43;;;;;;;6.50;2.97;;;14.20;93.00;;;;;;5029234;28;20500;-84
2023/09/16 05:21:11;;;;;;;6.15;3.15;;;14.20;93.00;;;;;;5031017;28;20053;-84
2023/09/16 05:23:39;;;;;;;4.20;3.10;;;14.20;93.10;;;;;;5042395;28;20081;-84
2023/09/16 05:26:12;;;;;;;5.63;2.38;;;14.20;93.10;;;;;;5014784;28;20069;-84
2023/09/16 05:28:41;;;;;;;5.18;2.90;;;14.20;93.10;;;;;;5017578;28;20055;-84
2023/09/16 05:31:10;;;;;;;5.10;2.90;;;14.20;93.10;;;;;;5023419;28;20558;-84
2023/09/16 05:33:40;;;;;;;6.53;3.60;;;14.20;93.10;;;;;;5039436;28;20218;-84
2023/09/16 05:36:10;;;;;;;4.28;2.70;;;14.20;93.10;;;;;;5038732;28;20486;-84
2023/09/16 05:38:37;;;;;;;5.25;2.78;;;14.20;93.10;;;;;;5044592;28;20033;-84
2023/09/16 05:41:16;;;;;;;5.68;3.08;;;14.20;93.10;;;;;;5015986;28;20037;-84
2023/09/16 05:43:43;;;;;;;4.78;3.22;;;14.20;93.10;;;;;;5017027;28;20050;-84
2023/09/16 05:46:10;;;;;;;4.65;2.65;;;14.20;93.10;;;;;;5043013;28;20186;-84
2023/09/16 05:48:41;;;;;;;5.82;3.47;;;14.20;93.10;;;;;;5029387;28;20087;-84
2023/09/16 05:51:10;;;;;;;4.60;2.70;;;14.30;93.10;;;;;;5006827;28;20073;-84
2023/09/16 05:53:39;;;;;;;3.92;2.42;;;14.30;93.00;;;;;;5025651;28;20486;-84
2023/09/16 05:56:08;;;;;;;5.63;3.40;;;14.40;93.00;;;;;;5022733;28;20096;-84
2023/09/16 05:58:43;;;;;;;6.78;3.47;;;14.40;93.00;;;;;;5025595;28;20045;-84
2023/09/16 06:01:17;;;;;;;6.07;3.33;;;14.50;93.00;;;;;;5019397;28;20045;-84
2023/09/16 06:03:47;;;;;;;5.50;3.25;;;14.50;92.90;;;;;;5036841;28;20076;-84
2023/09/16 06:06:17;;;;;;;6.18;3.33;;;14.50;92.90;;;;;;5027665;28;20041;-84
2023/09/16 06:08:44;;;;;;;6.63;3.25;;;14.50;92.90;;;;;;5020870;28;20045;-84
2023/09/16 06:11:12;;;;;;;4.80;2.60;;;14.60;92.90;;;;;;5026721;28;20045;-84
2023/09/16 06:13:39;;;;;;;4.68;3.05;;;14.60;92.90;;;;;;5047414;28;20049;-84
2023/09/16 06:16:07;;;;;;;5.55;3.03;;;14.60;92.90;;;;;;5012503;28;20041;-84
2023/09/16 06:18:35;;;;;;;4.45;2.85;;;14.70;92.90;;;;;;5023250;28;20076;-84
2023/09/16 06:21:06;;;;;;;3.13;1.75;;;14.80;92.80;;;;;;4994796;28;20136;-84
2023/09/16 06:23:33;;;;;;;4.18;2.63;;;14.90;92.80;;;;;;5030727;28;20119;-84
2023/09/16 06:26:01;;;;;;;4.90;2.63;;;14.90;92.70;;;;;;5024108;28;20057;-84
2023/09/16 06:28:33;;;;;;;4.88;2.85;;;15.00;92.70;;;;;;5015303;28;20052;-84
2023/09/16 06:31:01;;;;;;;5.40;2.67;;;15.00;92.70;;;;;;5009452;28;20120;-84
2023/09/16 06:33:29;;;;;;;6.03;3.42;;;15.00;92.70;;;;;;5006252;28;20499;-84
2023/09/16 06:36:00;;;;;;;3.90;2.42;;;15.00;92.70;;;;;;5023451;28;20132;-84
2023/09/16 06:38:30;;;;;;;6.75;2.63;;;15.10;92.70;;;;;;5032984;28;20045;-84
2023/09/16 06:40:57;;;;;;;4.57;2.63;;;15.10;92.60;;;;;;5019894;28;20561;-84
2023/09/16 06:43:24;;;;;;;4.88;2.80;;;15.20;92.60;;;;;;5033463;28;20121;-84
2023/09/16 06:45:51;;;;;;;5.10;2.83;;;15.30;92.50;;;;;;5029082;28;20049;-84
2023/09/16 06:48:20;;;;;;;4.70;2.58;;;15.30;92.50;;;;;;4991447;28;20054;-84
2023/09/16 06:50:50;;;;;;;4.68;2.40;;;15.40;92.40;;;;;;5018359;28;20475;-84
2023/09/16 06:53:18;;;;;;;4.30;2.50;;;15.50;92.40;;;;;;5038041;28;20037;-84
2023/09/16 06:55:47;;;;;;;5.20;2.70;;;15.60;92.40;;;;;;5042824;28;20103;-84
2023/09/16 06:58:15;;;;;;;4.10;2.53;;;15.60;92.30;;;;;;5045595;28;20045;-84
2023/09/16 07:01:08;;;;;;;4.00;2.50;;;15.70;92.30;;;;;;5032861;28;20030;-84
2023/09/16 07:03:44;;;;;;;4.22;2.20;;;15.80;92.20;;;;;;5021313;28;20490;-84
2023/09/16 07:06:11;;;;;;;4.78;2.65;;;15.90;92.10;;;;;;5039026;28;20052;-85
2023/09/16 07:08:42;;;;;;;4.07;2.20;;;16.00;92.00;;;;;;5006909;28;20053;-84
2023/09/16 07:11:11;;;;;;;4.45;2.22;;;16.20;91.90;;;;;;5016541;28;20048;-87
2023/09/16 07:13:40;;;;;;;4.22;2.35;;;16.30;91.90;;;;;;5011873;28;20482;-86
2023/09/16 07:16:11;;;;;;;4.28;2.40;;;16.40;91.80;;;;;;5046086;28;20492;-86
2023/09/16 07:18:43;;;;;;;4.90;2.00;;;16.50;91.70;;;;;;5036882;28;20072;-85
2023/09/16 07:21:13;;;;;;;4.07;2.53;;;16.70;91.60;;;;;;5038436;28;20045;-84
2023/09/16 07:23:44;;;;;;;4.93;2.80;;;16.70;91.60;;;;;;5006139;28;20136;-84
2023/09/16 07:26:12;;;;;;;4.80;2.75;;;16.80;91.50;;;;;;5034915;28;20045;-84
2023/09/16 07:28:41;;;;;;;3.90;2.38;;;16.90;91.50;;;;;;5021231;28;20419;-84
2023/09/16 07:31:24;;;;;;;3.55;1.90;;;17.00;91.40;;;;;;5039972;28;20049;-87
2023/09/16 07:33:55;;;;;;;4.30;2.25;;;17.10;91.30;;;;;;5050959;28;20081;-87
2023/09/16 07:36:24;;;;;;;4.07;2.55;;;17.20;91.30;;;;;;5022734;28;20095;-85
2023/09/16 07:38:51;;;;;;;4.72;2.35;;;17.20;91.20;;;;;;5034682;28;20053;-87
2023/09/16 07:41:23;;;;;;;;;;;17.30;91.20;;;;;;5002149;28;20046;-85
2023/09/16 07:43:50;;;;;;;4.00;2.17;;;17.30;91.40;;;;;;5032118;28;19921;-86
2023/09/16 07:46:18;;;;;;;4.57;2.55;;;17.40;91.10;;;;;;5025911;28;20496;-85
2023/09/16 07:48:45;;;;;;;3.78;1.60;;;17.50;91.10;;;;;;5031792;28;20053;-85
2023/09/16 07:51:13;;;;;;;4.43;1.88;;;17.60;91.00;;;;;;5033078;28;20081;-87
2023/09/16 07:53:40;;;;;;;4.32;2.28;;;17.70;91.00;;;;;;5055166;28;20122;-85
2023/09/16 07:56:07;;;;;;;3.08;1.88;;;17.80;90.90;;;;;;5029725;28;20090;-85
2023/09/16 07:58:35;;;;;;;4.40;2.10;;;17.90;90.90;;;;;;5024041;28;20134;-85
2023/09/16 08:01:02;;;;;;;4.60;2.65;;;17.90;90.80;;;;;;5025100;28;20045;-84
2023/09/16 08:04:10;;;;;;;3.80;2.28;;;17.90;90.90;;;;;;5022139;28;20077;-87
2023/09/16 08:06:41;;;;;;;2.97;1.65;;;18.00;90.90;;;;;;5019209;28;20047;-86
2023/09/16 08:09:11;;;;;;;3.13;1.67;;;18.10;90.80;;;;;;5035488;28;20059;-89
2023/09/16 08:11:39;;;;;;;5.43;2.42;;;18.30;90.70;;;;;;5018470;28;20091;-86
2023/09/16 08:14:06;;;;;;;4.15;2.20;;;18.50;90.50;;;;;;5015348;28;20068;-86
2023/09/16 08:16:34;;;;;;;4.95;2.85;;;18.70;90.30;;;;;;5017457;28;20045;-86
2023/09/16 08:19:01;;;;;;;3.88;2.25;;;18.90;90.20;;;;;;5044122;28;20044;-86
2023/09/16 08:21:28;;;;;;;4.75;2.25;;;19.10;90.00;;;;;;5025354;28;20042;-86
2023/09/16 08:23:56;;;;;;;3.97;1.90;;;19.20;89.90;;;;;;5022190;28;20071;-88
2023/09/16 08:26:35;;;;;;;4.35;2.20;;;19.30;89.70;;;;;;5058305;28;20053;-87
2023/09/16 08:29:02;;;;;;;3.47;1.90;;;19.40;89.60;;;;;;5002978;28;20055;-86
2023/09/16 08:31:31;;;;;;;5.03;2.08;;;19.60;89.60;;;;;;5004590;28;20132;-86
2023/09/16 08:34:02;;;;;;;3.50;1.95;;;19.70;89.40;;;;;;5028826;28;20046;-86
2023/09/16 08:36:31;;;;;;;3.45;1.80;;;19.80;89.20;;;;;;5000047;28;20046;-85
2023/09/16 08:38:58;;;;;;;3.00;1.40;;;19.90;89.00;;;;;;5018596;28;20080;-84
2023/09/16 08:41:34;;;;;;;4.25;2.35;;;20.10;88.80;;;;;;5004432;28;20073;-84
2023/09/16 08:44:05;;;;;;;3.92;2.00;;;20.30;88.70;;;;;;5037627;28;20951;-86
2023/09/16 08:46:41;;;;;;;5.22;2.13;;;20.30;88.40;;;;;;5034623;28;20048;-90
2023/09/16 08:49:12;;;;;;;3.03;1.80;;;20.30;88.30;;;;;;5038763;28;20506;-82
2023/09/16 08:51:45;;;;;;;3.83;1.70;;;20.30;88.40;;;;;;5014725;28;20053;-82
2023/09/16 08:54:15;;;;;;;3.03;1.58;;;20.20;88.50;;;;;;5040796;28;20053;-84
2023/09/16 08:56:43;;;;;;;3.60;2.05;;;20.20;88.60;;;;;;5018592;28;20558;-84
2023/09/16 08:59:11;;;;;;;3.45;1.75;;;20.10;88.60;;;;;;5006338;28;20046;-83
2023/09/16 09:01:39;;;;;;;2.95;1.52;;;20.10;89.20;;;;;;5028492;28;20099;-84
2023/09/16 09:04:07;;;;;;;2.70;1.30;;;20.10;88.70;;;;;;5025044;28;20068;-84
2023/09/16 09:06:35;;;;;;;2.80;1.50;;;20.10;88.70;;;;;;5020226;28;20057;-84
2023/09/16 09:09:07;;;;;;;3.22;1.55;;;20.10;88.70;;;;;;5024970;28;20056;-82
2023/09/16 09:11:36;;;;;;;2.90;1.60;;;20.10;88.70;;;;;;5028646;28;20037;-82
2023/09/16 09:14:04;;;;;;;3.20;1.67;;;20.20;88.70;;;;;;5034716;28;20148;-82
2023/09/16 09:16:33;;;;;;;3.95;2.05;;;20.20;88.60;;;;;;5013155;28;20044;-82
2023/09/16 09:19:02;;;;;;;3.70;1.85;;;20.30;88.50;;;;;;5023182;28;20049;-82
2023/09/16 09:21:32;;;;;;;4.45;2.05;;;20.30;88.20;;;;;;5019189;28;20045;-82
2023/09/16 09:23:59;;;;;;;3.78;2.05;;;20.30;88.10;;;;;;5030895;28;20053;-82
2023/09/16 09:26:29;;;;;;;3.17;1.42;;;20.40;88.10;;;;;;5032816;28;20149;-83
2023/09/16 09:28:59;;;;;;;4.00;2.15;;;20.50;87.90;;;;;;5019322;28;20127;-82
2023/09/16 09:31:27;;;;;;;3.55;1.60;;;20.50;87.80;;;;;;5024758;28;20136;-82
2023/09/16 09:33:55;;;;;;;3.75;1.90;;;20.60;87.70;;;;;;5033946;28;20042;-82
2023/09/16 09:36:24;;;;;;;3.05;1.83;;;20.60;87.70;;;;;;5021212;28;20041;-82
2023/09/16 09:38:51;;;;;;;2.10;1.23;;;20.60;87.60;;;;;;5003491;28;20053;-82
2023/09/16 09:41:19;;;;;;;3.90;1.80;;;20.60;87.40;;;;;;5007698;28;20160;-82
2023/09/16 09:43:47;;;;;;;3.20;1.90;;;20.70;87.30;;;;;;5021449;28;20114;-83
2023/09/16 09:46:15;;;;;;;3.13;1.90;;;20.80;87.30;;;;;;5033744;28;20056;-83
2023/09/16 09:48:42;;;;;;;3.15;1.60;;;20.90;87.10;;;;;;4994866;28;20057;-83
2023/09/16 09:51:10;;;;;;;3.35;1.27;;;20.90;86.70;;;;;;4991009;28;20396;-83
2023/09/16 09:53:37;;;;;;;3.28;1.90;;;21.00;86.50;;;;;;5028975;28;20064;-83
2023/09/16 09:56:09;;;;;;;2.75;1.40;;;21.10;86.20;;;;;;5020542;28;20096;-83
2023/09/16 09:58:36;;;;;;;2.42;1.25;;;21.20;86.00;;;;;;5017402;28;20152;-84
2023/09/16 10:01:07;;;;;;;3.42;1.23;;;21.30;85.80;;;;;;5020799;28;20068;-83
2023/09/16 10:03:34;;;;;;;3.20;1.45;;;21.40;85.60;;;;;;5044529;28;20072;-83
2023/09/16 10:06:41;;;;;;;2.78;1.58;;;21.40;85.40;;;;;;5034071;28;20068;-84
2023/09/16 10:09:16;;;;;;;3.08;1.50;;;21.50;85.00;;;;;;5009440;28;20048;-84
2023/09/16 10:11:46;;;;;;;2.88;1.63;;;21.60;85.00;;;;;;5048793;28;20408;-84
2023/09/16 10:14:22;;;;;;;2.95;1.30;;;21.70;84.70;;;;;;5013847;28;20045;-84
2023/09/16 10:16:52;;;;;;;3.42;1.65;;;21.70;84.30;;;;;;4991719;28;20076;-82
2023/09/16 10:19:22;;;;;;;2.33;1.17;;;21.70;83.90;;;;;;5033867;28;20034;-81
2023/09/16 10:21:52;;;;;;;2.13;1.00;;;21.80;83.70;;;;;;5036313;28;20099;-81
2023/09/16 10:24:20;;;;;;;2.47;1.00;;;21.80;83.50;;;;;;5017510;28;20057;-81
2023/09/16 10:26:48;;;;;;;2.28;1.27;;;21.90;83.40;;;;;;5046167;28;20041;-82
2023/09/16 10:29:17;;;;;;;2.53;1.20;;;22.00;83.20;;;;;;5000719;28;20048;-82
2023/09/16 10:31:48;;;;;;;1.90;0.90;;;22.00;83.00;;;;;;5039181;28;20121;-81
2023/09/16 10:34:15;;;;;;;2.30;0.90;;;22.00;82.80;;;;;;5036004;28;20069;-82
2023/09/16 10:36:42;;;;;;;1.95;1.20;;;22.00;82.70;;;;;;5018497;28;20045;-82
2023/09/16 10:39:13;;;;;;;1.50;0.80;;;22.10;82.60;;;;;;5035832;28;20033;-84
2023/09/16 10:41:41;;;;;;;2.20;1.00;;;22.10;82.30;;;;;;5021014;28;20041;-81
2023/09/16 10:44:09;;;;;;;1.63;0.80;;;22.20;82.30;;;;;;5053338;28;20064;-82
2023/09/16 10:46:37;;;;;;;2.80;1.10;;;22.20;82.10;;;;;;5034238;28;20075;-82
2023/09/16 10:49:04;;;;;;;2.33;0.85;;;22.30;81.90;;;;;;5037872;28;20040;-83
2023/09/16 10:51:39;;;;;;;2.80;1.15;;;22.30;81.60;;;;;;5032704;28;20208;-82
2023/09/16 10:54:21;;;;;;;1.33;0.70;;;22.40;81.40;;;;;;5032754;28;20091;-82
2023/09/16 10:56:49;;;;;;;2.38;0.80;;;22.40;81.30;;;;;;5022613;28;20080;-82
2023/09/16 10:59:27;;;;;;;2.33;0.90;;;22.40;81.20;;;;;;4989540;28;20049;-85
2023/09/16 11:02:06;;;;;;;1.95;0.93;;;22.50;80.70;;;;;;5034414;28;20049;-85
2023/09/16 11:04:41;;;;;;;2.22;0.88;;;22.60;80.40;;;;;;5018786;28;20055;-85
2023/09/16 11:07:15;;;;;;;2.30;1.05;;;22.70;80.00;;;;;;5043091;28;20048;-81
2023/09/16 11:09:43;;;;;;;1.65;0.90;;;22.80;79.60;;;;;;5038321;28;20361;-81
2023/09/16 11:12:11;;;;;;;2.28;1.00;;;22.90;79.20;;;;;;5032592;28;20041;-81
2023/09/16 11:14:38;;;;;;;1.90;0.73;;;23.00;79.00;;;;;;5029330;28;20041;-81
2023/09/16 11:17:14;;;;;;;1.77;0.73;;;23.00;78.80;;;;;;5019566;28;20041;-81
2023/09/16 11:19:42;;;;;;;1.40;0.65;;;23.00;78.70;;;;;;5028007;28;20072;-81
2023/09/16 11:22:10;;;;;;;2.00;0.98;;;23.00;78.70;;;;;;5023148;28;20038;-81
2023/09/16 11:24:37;;;;;;;1.52;0.80;;;23.00;79.10;;;;;;4999432;28;20076;-82
2023/09/16 11:27:05;;;;;;;1.63;0.70;;;23.10;78.20;;;;;;5025568;28;20059;-85
2023/09/16 11:29:50;;;;;;;1.75;0.77;;;23.10;78.00;;;;;;5025613;28;20143;-84
2023/09/16 11:32:19;;;;;;;1.98;1.15;;;23.00;77.80;;;;;;5030493;28;20534;-83
2023/09/16 11:34:47;;;;;;;2.80;1.40;;;23.00;77.70;;;;;;5044223;28;20045;-80
2023/09/16 11:37:15;;;;;;;2.03;0.80;;;23.10;77.40;;;;;;5025681;28;20387;-82
2023/09/16 11:39:44;;;;;;;2.17;1.00;;;23.10;77.30;;;;;;5019751;28;20052;-82
2023/09/16 11:42:12;;;;;;;1.92;1.00;;;23.20;77.10;;;;;;5024474;28;20046;-83
2023/09/16 11:44:41;;;;;;;2.05;1.00;;;23.20;77.10;;;;;;5030589;28;20072;-82
2023/09/16 11:47:10;;;;;;;2.17;0.90;;;23.20;77.10;;;;;;5022195;28;20068;-82
2023/09/16 11:49:37;;;;;;;3.47;1.38;;;23.20;77.00;;;;;;5032766;28;20041;-82
2023/09/16 11:52:04;;;;;;;1.75;0.73;;;23.20;76.90;;;;;;5042285;28;20048;-82
2023/09/16 11:54:32;;;;;;;1.70;0.80;;;23.20;76.90;;;;;;5012972;28;20061;-81
2023/09/16 11:56:59;;;;;;;2.33;1.38;;;23.20;76.70;;;;;;5060906;28;20045;-81
2023/09/16 11:59:27;;;;;;;2.15;1.10;;;23.20;76.80;;;;;;5040782;28;20049;-82
2023/09/16 12:01:55;;;;;;;2.30;1.10;;;23.20;76.80;;;;;;5021583;28;20102;-82
2023/09/16 12:04:22;;;;;;;2.35;1.25;;;23.20;76.90;;;;;;5031416;28;20554;-83
2023/09/16 12:06:50;;;;;;;2.58;1.25;;;23.20;76.80;;;;;;5015129;28;20053;-82
2023/09/16 12:09:38;;;;;;;2.40;1.00;;;23.20;76.60;;;;;;5023318;28;20049;-86
2023/09/16 12:12:08;;;;;;;2.33;1.13;;;23.30;76.50;;;;;;5022010;28;20059;-87
2023/09/16 12:14:46;;;;;;;1.80;0.90;;;23.20;76.60;;;;;;5019395;28;20072;-84
2023/09/16 12:17:17;;;;;;;2.00;0.98;;;23.20;76.70;;;;;;5039877;28;20051;-87
2023/09/16 12:19:52;;;;;;;1.88;1.10;;;23.20;76.50;;;;;;5045494;28;20136;-86
2023/09/16 12:22:19;;;;;;;2.45;1.08;;;23.20;76.40;;;;;;5021258;28;20045;-83
2023/09/16 12:24:51;;;;;;;1.77;0.73;;;23.20;76.40;;;;;;5001399;28;20172;-84
2023/09/16 12:27:18;;;;;;;1.63;0.80;;;23.20;76.40;;;;;;5018826;28;20550;-84
2023/09/16 12:29:46;;;;;;;2.03;1.08;;;23.30;76.40;;;;;;5010462;28;20049;-84
2023/09/16 12:32:15;;;;;;;2.40;1.00;;;23.30;76.40;;;;;;4998071;28;20041;-84
2023/09/16 12:34:42;;;;;;;1.83;1.00;;;23.30;76.30;;;;;;5025432;28;20037;-85
2023/09/16 12:37:09;;;;;;;1.35;0.75;;;23.30;76.20;;;;;;5033439;28;20499;-85
2023/09/16 12:39:40;;;;;;;2.20;1.00;;;23.40;76.10;;;;;;5022162;28;20045;-85
2023/09/16 12:42:08;;;;;;;1.73;0.93;;;23.40;75.90;;;;;;5026181;28;20040;-88
2023/09/16 12:44:48;;;;;;;2.03;1.02;;;23.50;75.80;;;;;;5036041;28;20135;-86
2023/09/16 12:47:22;;;;;;;1.70;0.85;;;23.50;75.50;;;;;;5020092;28;20060;-86
2023/09/16 12:49:50;;;;;;;1.45;0.77;;;23.60;75.20;;;;;;5019101;28;20073;-90
2023/09/16 12:52:20;;;;;;;1.67;0.90;;;23.70;75.10;;;;;;5027136;28;20053;-89
2023/09/16 12:54:50;;;;;;;1.38;0.70;;;23.70;75.00;;;;;;5034147;28;20103;-89
2023/09/16 12:57:23;;;;;;;2.47;0.95;;;23.80;74.90;;;;;;5010981;28;20541;-91
2023/09/16 13:00:01;;;;;;;2.30;1.17;;;23.70;74.80;;;;;;5023243;28;20183;-90
2023/09/16 13:02:37;;;;;;;1.73;0.80;;;23.80;74.60;;;;;;5014926;28;20132;-87